sensor_id;sensor_type;location;lat;lon;timestamp;P1;durP1;ratioP1;P2;durP2;ratioP2
52786;SDS011;38661;53.152;5.846;2024-03-02T00:02:14;3.30;;;2.40;;
52786;SDS011;38661;53.152;5.846;2024-03-02T00:04:39;3.42;;;2.70;;
52786;SDS011;38661;53.152;5.846;2024-03-02T00:07:06;3.92;;;2.40;;
52786;SDS011;38661;53.152;5.846;2024-03-02T00:09:32;3.67;;;2.30;;
52786;SDS011;38661;53.152;5.846;2024-03-02T00:12:01;4.00;;;2.35;;
52786;SDS011;38661;53.152;5.846;2024-03-02T00:14:29;3.33;;;2.20;;
52786;SDS011;38661;53.152;5.846;2024-03-02T00:16:55;3.97;;;2.72;;
52786;SDS011;38661;53.152;5.846;2024-03-02T00:19:21;4.13;;;2.80;;
52786;SDS011;38661;53.152;5.846;2024-03-02T00:21:47;4.68;;;2.55;;
52786;SDS011;38661;53.152;5.846;2024-03-02T00:24:32;4.15;;;3.08;;
52786;SDS011;38661;53.152;5.846;2024-03-02T00:26:59;4.30;;;2.67;;
52786;SDS011;38661;53.152;5.846;2024-03-02T00:29:26;3.53;;;2.40;;
52786;SDS011;38661;53.152;5.846;2024-03-02T00:31:54;5.28;;;3.03;;
52786;SDS011;38661;53.152;5.846;2024-03-02T00:34:20;3.53;;;2.17;;
52786;SDS011;38661;53.152;5.846;2024-03-02T00:36:47;3.25;;;2.78;;
52786;SDS011;38661;53.152;5.846;2024-03-02T00:39:14;3.97;;;2.63;;
52786;SDS011;38661;53.152;5.846;2024-03-02T00:41:42;3.88;;;2.80;;
52786;SDS011;38661;53.152;5.846;2024-03-02T00:44:09;3.20;;;2.45;;
52786;SDS011;38661;53.152;5.846;2024-03-02T00:46:40;3.72;;;2.88;;
52786;SDS011;38661;53.152;5.846;2024-03-02T00:49:23;4.55;;;3.17;;
52786;SDS011;38661;53.152;5.846;2024-03-02T00:54:23;4.50;;;2.97;;
52786;SDS011;38661;53.152;5.846;2024-03-02T00:56:53;4.18;;;2.88;;
52786;SDS011;38661;53.152;5.846;2024-03-02T00:59:20;4.15;;;2.85;;
52786;SDS011;38661;53.152;5.846;2024-03-02T01:01:47;4.70;;;2.88;;
52786;SDS011;38661;53.152;5.846;2024-03-02T01:04:14;3.45;;;2.40;;
52786;SDS011;38661;53.152;5.846;2024-03-02T01:06:40;5.45;;;3.13;;
52786;SDS011;38661;53.152;5.846;2024-03-02T01:09:07;4.30;;;2.67;;
52786;SDS011;38661;53.152;5.846;2024-03-02T01:11:32;4.63;;;2.83;;
52786;SDS011;38661;53.152;5.846;2024-03-02T01:13:58;3.90;;;2.65;;
52786;SDS011;38661;53.152;5.846;2024-03-02T01:16:24;3.85;;;2.80;;
52786;SDS011;38661;53.152;5.846;2024-03-02T01:18:50;3.85;;;2.47;;
52786;SDS011;38661;53.152;5.846;2024-03-02T01:21:16;5.75;;;2.47;;
52786;SDS011;38661;53.152;5.846;2024-03-02T01:23:42;3.45;;;2.30;;
52786;SDS011;38661;53.152;5.846;2024-03-02T01:26:08;2.47;;;1.90;;
52786;SDS011;38661;53.152;5.846;2024-03-02T01:28:34;3.75;;;2.13;;
52786;SDS011;38661;53.152;5.846;2024-03-02T01:30:59;3.97;;;2.65;;
52786;SDS011;38661;53.152;5.846;2024-03-02T01:33:26;2.40;;;1.77;;
52786;SDS011;38661;53.152;5.846;2024-03-02T01:35:51;4.05;;;2.05;;
52786;SDS011;38661;53.152;5.846;2024-03-02T01:38:17;4.70;;;2.45;;
52786;SDS011;38661;53.152;5.846;2024-03-02T01:40:43;5.40;;;2.17;;
52786;SDS011;38661;53.152;5.846;2024-03-02T01:43:09;3.42;;;2.35;;
52786;SDS011;38661;53.152;5.846;2024-03-02T01:45:35;2.88;;;2.00;;
52786;SDS011;38661;53.152;5.846;2024-03-02T01:48:02;5.70;;;2.25;;
52786;SDS011;38661;53.152;5.846;2024-03-02T01:50:31;3.78;;;1.92;;
52786;SDS011;38661;53.152;5.846;2024-03-02T01:53:00;5.10;;;1.90;;
52786;SDS011;38661;53.152;5.846;2024-03-02T01:55:29;3.55;;;1.75;;
52786;SDS011;38661;53.152;5.846;2024-03-02T01:57:55;1.63;;;1.30;;
52786;SDS011;38661;53.152;5.846;2024-03-02T02:00:21;2.08;;;1.63;;
52786;SDS011;38661;53.152;5.846;2024-03-02T02:02:49;4.03;;;1.98;;
52786;SDS011;38661;53.152;5.846;2024-03-02T02:05:15;4.00;;;2.08;;
52786;SDS011;38661;53.152;5.846;2024-03-02T02:07:42;4.43;;;1.77;;
52786;SDS011;38661;53.152;5.846;2024-03-02T02:10:08;3.08;;;2.00;;
52786;SDS011;38661;53.152;5.846;2024-03-02T02:12:35;4.97;;;2.20;;
52786;SDS011;38661;53.152;5.846;2024-03-02T02:15:01;3.50;;;1.83;;
52786;SDS011;38661;53.152;5.846;2024-03-02T02:17:27;2.97;;;1.80;;
52786;SDS011;38661;53.152;5.846;2024-03-02T02:19:53;4.65;;;2.25;;
52786;SDS011;38661;53.152;5.846;2024-03-02T02:22:19;3.35;;;2.05;;
52786;SDS011;38661;53.152;5.846;2024-03-02T02:24:44;3.17;;;2.28;;
52786;SDS011;38661;53.152;5.846;2024-03-02T02:27:10;4.75;;;2.20;;
52786;SDS011;38661;53.152;5.846;2024-03-02T02:29:37;3.75;;;2.20;;
52786;SDS011;38661;53.152;5.846;2024-03-02T02:32:03;5.05;;;2.28;;
52786;SDS011;38661;53.152;5.846;2024-03-02T02:34:29;2.80;;;1.67;;
52786;SDS011;38661;53.152;5.846;2024-03-02T02:36:55;3.53;;;1.80;;
52786;SDS011;38661;53.152;5.846;2024-03-02T02:39:21;4.65;;;2.00;;
52786;SDS011;38661;53.152;5.846;2024-03-02T02:41:47;2.88;;;1.98;;
52786;SDS011;38661;53.152;5.846;2024-03-02T02:44:13;4.07;;;1.70;;
52786;SDS011;38661;53.152;5.846;2024-03-02T02:46:39;3.40;;;1.60;;
52786;SDS011;38661;53.152;5.846;2024-03-02T02:49:05;2.95;;;1.63;;
52786;SDS011;38661;53.152;5.846;2024-03-02T02:51:31;3.45;;;1.73;;
52786;SDS011;38661;53.152;5.846;2024-03-02T02:53:57;2.97;;;1.83;;
52786;SDS011;38661;53.152;5.846;2024-03-02T02:56:23;2.25;;;1.67;;
52786;SDS011;38661;53.152;5.846;2024-03-02T02:58:49;4.30;;;2.20;;
52786;SDS011;38661;53.152;5.846;2024-03-02T03:01:15;3.22;;;1.63;;
52786;SDS011;38661;53.152;5.846;2024-03-02T03:03:44;3.58;;;1.55;;
52786;SDS011;38661;53.152;5.846;2024-03-02T03:06:10;2.60;;;1.55;;
52786;SDS011;38661;53.152;5.846;2024-03-02T03:08:36;2.42;;;1.65;;
52786;SDS011;38661;53.152;5.846;2024-03-02T03:11:02;3.20;;;2.33;;
52786;SDS011;38661;53.152;5.846;2024-03-02T03:13:28;3.90;;;1.95;;
52786;SDS011;38661;53.152;5.846;2024-03-02T03:15:54;3.25;;;1.95;;
52786;SDS011;38661;53.152;5.846;2024-03-02T03:18:20;2.10;;;1.60;;
52786;SDS011;38661;53.152;5.846;2024-03-02T03:20:46;4.00;;;1.70;;
52786;SDS011;38661;53.152;5.846;2024-03-02T03:23:11;3.50;;;1.80;;
52786;SDS011;38661;53.152;5.846;2024-03-02T03:25:40;3.22;;;1.95;;
52786;SDS011;38661;53.152;5.846;2024-03-02T03:28:09;3.42;;;1.80;;
52786;SDS011;38661;53.152;5.846;2024-03-02T03:30:38;3.05;;;2.03;;
52786;SDS011;38661;53.152;5.846;2024-03-02T03:33:05;3.30;;;1.90;;
52786;SDS011;38661;53.152;5.846;2024-03-02T03:35:31;3.05;;;1.70;;
52786;SDS011;38661;53.152;5.846;2024-03-02T03:37:57;4.07;;;1.90;;
52786;SDS011;38661;53.152;5.846;2024-03-02T03:40:23;3.95;;;1.80;;
52786;SDS011;38661;53.152;5.846;2024-03-02T03:42:49;3.15;;;1.60;;
52786;SDS011;38661;53.152;5.846;2024-03-02T03:45:15;4.93;;;1.98;;
52786;SDS011;38661;53.152;5.846;2024-03-02T03:47:41;3.13;;;1.92;;
52786;SDS011;38661;53.152;5.846;2024-03-02T03:50:07;2.75;;;1.65;;
52786;SDS011;38661;53.152;5.846;2024-03-02T03:52:33;2.78;;;1.63;;
52786;SDS011;38661;53.152;5.846;2024-03-02T03:54:59;3.72;;;1.58;;
52786;SDS011;38661;53.152;5.846;2024-03-02T03:57:25;2.72;;;1.20;;
52786;SDS011;38661;53.152;5.846;2024-03-02T03:59:52;2.85;;;1.40;;
52786;SDS011;38661;53.152;5.846;2024-03-02T04:02:18;1.67;;;1.15;;
52786;SDS011;38661;53.152;5.846;2024-03-02T04:04:43;2.88;;;1.40;;
52786;SDS011;38661;53.152;5.846;2024-03-02T04:07:09;2.83;;;1.30;;
52786;SDS011;38661;53.152;5.846;2024-03-02T04:09:35;4.15;;;1.27;;
52786;SDS011;38661;53.152;5.846;2024-03-02T04:12:01;2.00;;;1.20;;
52786;SDS011;38661;53.152;5.846;2024-03-02T04:14:26;1.75;;;1.02;;
52786;SDS011;38661;53.152;5.846;2024-03-02T04:16:52;2.33;;;0.82;;
52786;SDS011;38661;53.152;5.846;2024-03-02T04:19:18;1.52;;;0.80;;
52786;SDS011;38661;53.152;5.846;2024-03-02T04:21:43;1.38;;;0.80;;
52786;SDS011;38661;53.152;5.846;2024-03-02T04:24:09;1.00;;;0.63;;
52786;SDS011;38661;53.152;5.846;2024-03-02T04:26:35;0.85;;;0.50;;
52786;SDS011;38661;53.152;5.846;2024-03-02T04:29:01;1.08;;;0.50;;
52786;SDS011;38661;53.152;5.846;2024-03-02T04:31:27;2.03;;;0.63;;
52786;SDS011;38661;53.152;5.846;2024-03-02T04:33:52;1.38;;;0.50;;
52786;SDS011;38661;53.152;5.846;2024-03-02T04:36:19;1.70;;;0.73;;
52786;SDS011;38661;53.152;5.846;2024-03-02T04:38:46;1.65;;;0.82;;
52786;SDS011;38661;53.152;5.846;2024-03-02T04:41:12;1.65;;;0.52;;
52786;SDS011;38661;53.152;5.846;2024-03-02T04:43:37;0.95;;;0.52;;
52786;SDS011;38661;53.152;5.846;2024-03-02T04:46:03;2.38;;;0.68;;
52786;SDS011;38661;53.152;5.846;2024-03-02T04:48:30;0.57;;;0.47;;
52786;SDS011;38661;53.152;5.846;2024-03-02T04:50:56;0.95;;;0.40;;
52786;SDS011;38661;53.152;5.846;2024-03-02T04:53:21;1.30;;;0.80;;
52786;SDS011;38661;53.152;5.846;2024-03-02T04:55:47;0.98;;;0.60;;
52786;SDS011;38661;53.152;5.846;2024-03-02T04:58:36;1.58;;;0.50;;
52786;SDS011;38661;53.152;5.846;2024-03-02T05:01:01;0.82;;;0.50;;
52786;SDS011;38661;53.152;5.846;2024-03-02T05:03:27;1.50;;;0.80;;
52786;SDS011;38661;53.152;5.846;2024-03-02T05:05:52;0.95;;;0.68;;
52786;SDS011;38661;53.152;5.846;2024-03-02T05:08:18;2.40;;;0.60;;
52786;SDS011;38661;53.152;5.846;2024-03-02T05:10:44;1.65;;;0.80;;
52786;SDS011;38661;53.152;5.846;2024-03-02T05:13:09;1.30;;;0.70;;
52786;SDS011;38661;53.152;5.846;2024-03-02T05:15:35;1.63;;;0.50;;
52786;SDS011;38661;53.152;5.846;2024-03-02T05:18:01;1.05;;;0.55;;
52786;SDS011;38661;53.152;5.846;2024-03-02T05:20:30;3.22;;;0.73;;
52786;SDS011;38661;53.152;5.846;2024-03-02T05:22:55;1.00;;;0.60;;
52786;SDS011;38661;53.152;5.846;2024-03-02T05:25:21;1.10;;;0.80;;
52786;SDS011;38661;53.152;5.846;2024-03-02T05:27:47;1.73;;;0.90;;
52786;SDS011;38661;53.152;5.846;2024-03-02T05:30:13;4.68;;;1.98;;
52786;SDS011;38661;53.152;5.846;2024-03-02T05:32:39;2.30;;;1.08;;
52786;SDS011;38661;53.152;5.846;2024-03-02T05:35:05;1.15;;;0.75;;
52786;SDS011;38661;53.152;5.846;2024-03-02T05:37:31;1.98;;;0.80;;
52786;SDS011;38661;53.152;5.846;2024-03-02T05:39:57;1.83;;;1.30;;
52786;SDS011;38661;53.152;5.846;2024-03-02T05:42:24;1.65;;;1.10;;
52786;SDS011;38661;53.152;5.846;2024-03-02T05:44:50;1.98;;;1.30;;
52786;SDS011;38661;53.152;5.846;2024-03-02T05:47:15;1.70;;;1.55;;
52786;SDS011;38661;53.152;5.846;2024-03-02T05:49:41;1.85;;;1.70;;
52786;SDS011;38661;53.152;5.846;2024-03-02T05:52:08;1.98;;;1.20;;
52786;SDS011;38661;53.152;5.846;2024-03-02T05:54:33;1.50;;;1.00;;
52786;SDS011;38661;53.152;5.846;2024-03-02T05:56:59;2.08;;;1.33;;
52786;SDS011;38661;53.152;5.846;2024-03-02T05:59:41;1.92;;;0.95;;
52786;SDS011;38661;53.152;5.846;2024-03-02T06:02:08;2.45;;;0.68;;
52786;SDS011;38661;53.152;5.846;2024-03-02T06:04:33;1.95;;;0.82;;
52786;SDS011;38661;53.152;5.846;2024-03-02T06:06:59;1.95;;;0.60;;
52786;SDS011;38661;53.152;5.846;2024-03-02T06:09:24;0.80;;;0.57;;
52786;SDS011;38661;53.152;5.846;2024-03-02T06:11:51;3.05;;;0.88;;
52786;SDS011;38661;53.152;5.846;2024-03-02T06:14:17;1.38;;;0.75;;
52786;SDS011;38661;53.152;5.846;2024-03-02T06:16:42;11.95;;;7.00;;
52786;SDS011;38661;53.152;5.846;2024-03-02T06:19:08;10.13;;;7.30;;
52786;SDS011;38661;53.152;5.846;2024-03-02T06:21:34;4.55;;;3.40;;
52786;SDS011;38661;53.152;5.846;2024-03-02T06:23:59;8.23;;;6.90;;
52786;SDS011;38661;53.152;5.846;2024-03-02T06:26:26;6.35;;;4.57;;
52786;SDS011;38661;53.152;5.846;2024-03-02T06:28:52;8.43;;;4.85;;
52786;SDS011;38661;53.152;5.846;2024-03-02T06:31:17;7.78;;;5.20;;
52786;SDS011;38661;53.152;5.846;2024-03-02T06:33:43;6.03;;;3.78;;
52786;SDS011;38661;53.152;5.846;2024-03-02T06:36:09;7.25;;;3.70;;
52786;SDS011;38661;53.152;5.846;2024-03-02T06:38:34;4.60;;;3.30;;
52786;SDS011;38661;53.152;5.846;2024-03-02T06:41:00;4.07;;;2.17;;
52786;SDS011;38661;53.152;5.846;2024-03-02T06:43:26;3.10;;;2.20;;
52786;SDS011;38661;53.152;5.846;2024-03-02T06:45:52;4.55;;;3.15;;
52786;SDS011;38661;53.152;5.846;2024-03-02T06:48:18;2.92;;;2.10;;
52786;SDS011;38661;53.152;5.846;2024-03-02T06:50:48;2.25;;;1.50;;
52786;SDS011;38661;53.152;5.846;2024-03-02T06:53:15;2.33;;;1.77;;
52786;SDS011;38661;53.152;5.846;2024-03-02T06:55:43;3.95;;;1.65;;
52786;SDS011;38661;53.152;5.846;2024-03-02T06:58:10;2.03;;;1.83;;
52786;SDS011;38661;53.152;5.846;2024-03-02T07:00:40;3.05;;;2.10;;
52786;SDS011;38661;53.152;5.846;2024-03-02T07:03:06;3.42;;;2.20;;
52786;SDS011;38661;53.152;5.846;2024-03-02T07:05:32;2.22;;;2.00;;
52786;SDS011;38661;53.152;5.846;2024-03-02T07:07:58;4.22;;;2.22;;
52786;SDS011;38661;53.152;5.846;2024-03-02T07:10:24;3.85;;;2.70;;
52786;SDS011;38661;53.152;5.846;2024-03-02T07:12:49;3.03;;;2.38;;
52786;SDS011;38661;53.152;5.846;2024-03-02T07:15:15;4.28;;;2.53;;
52786;SDS011;38661;53.152;5.846;2024-03-02T07:17:55;5.57;;;2.55;;
52786;SDS011;38661;53.152;5.846;2024-03-02T07:20:21;3.22;;;1.77;;
52786;SDS011;38661;53.152;5.846;2024-03-02T07:22:46;1.83;;;1.50;;
52786;SDS011;38661;53.152;5.846;2024-03-02T07:25:12;2.05;;;1.38;;
52786;SDS011;38661;53.152;5.846;2024-03-02T07:27:38;3.58;;;1.25;;
52786;SDS011;38661;53.152;5.846;2024-03-02T07:30:04;2.40;;;1.00;;
52786;SDS011;38661;53.152;5.846;2024-03-02T07:32:31;1.20;;;0.80;;
52786;SDS011;38661;53.152;5.846;2024-03-02T07:34:56;2.30;;;1.23;;
52786;SDS011;38661;53.152;5.846;2024-03-02T07:37:25;2.08;;;1.30;;
52786;SDS011;38661;53.152;5.846;2024-03-02T07:39:51;1.60;;;1.10;;
52786;SDS011;38661;53.152;5.846;2024-03-02T07:42:17;2.08;;;1.70;;
52786;SDS011;38661;53.152;5.846;2024-03-02T07:44:45;2.72;;;1.75;;
52786;SDS011;38661;53.152;5.846;2024-03-02T07:47:11;3.30;;;1.35;;
52786;SDS011;38661;53.152;5.846;2024-03-02T07:49:37;2.00;;;1.60;;
52786;SDS011;38661;53.152;5.846;2024-03-02T07:52:03;4.80;;;2.38;;
52786;SDS011;38661;53.152;5.846;2024-03-02T07:54:29;2.72;;;1.70;;
52786;SDS011;38661;53.152;5.846;2024-03-02T07:56:54;2.75;;;2.33;;
52786;SDS011;38661;53.152;5.846;2024-03-02T07:59:20;2.67;;;1.60;;
52786;SDS011;38661;53.152;5.846;2024-03-02T08:01:47;4.28;;;2.53;;
52786;SDS011;38661;53.152;5.846;2024-03-02T08:04:14;2.28;;;1.70;;
52786;SDS011;38661;53.152;5.846;2024-03-02T08:06:40;2.25;;;1.70;;
52786;SDS011;38661;53.152;5.846;2024-03-02T08:09:06;4.43;;;1.83;;
52786;SDS011;38661;53.152;5.846;2024-03-02T08:11:35;3.80;;;2.03;;
52786;SDS011;38661;53.152;5.846;2024-03-02T08:14:01;2.22;;;1.65;;
52786;SDS011;38661;53.152;5.846;2024-03-02T08:16:27;2.10;;;1.30;;
52786;SDS011;38661;53.152;5.846;2024-03-02T08:18:52;3.70;;;1.58;;
52786;SDS011;38661;53.152;5.846;2024-03-02T08:21:19;2.55;;;1.58;;
52786;SDS011;38661;53.152;5.846;2024-03-02T08:23:44;3.85;;;2.70;;
52786;SDS011;38661;53.152;5.846;2024-03-02T08:26:11;1.58;;;0.95;;
52786;SDS011;38661;53.152;5.846;2024-03-02T08:28:36;3.00;;;1.80;;
52786;SDS011;38661;53.152;5.846;2024-03-02T08:31:06;2.88;;;1.48;;
52786;SDS011;38661;53.152;5.846;2024-03-02T08:33:32;4.22;;;1.52;;
52786;SDS011;38661;53.152;5.846;2024-03-02T08:35:58;6.10;;;1.90;;
52786;SDS011;38661;53.152;5.846;2024-03-02T08:38:24;2.67;;;1.50;;
52786;SDS011;38661;53.152;5.846;2024-03-02T08:40:50;3.38;;;1.75;;
52786;SDS011;38661;53.152;5.846;2024-03-02T08:43:16;5.25;;;1.80;;
52786;SDS011;38661;53.152;5.846;2024-03-02T08:45:42;3.05;;;1.95;;
52786;SDS011;38661;53.152;5.846;2024-03-02T08:48:08;1.77;;;1.30;;
52786;SDS011;38661;53.152;5.846;2024-03-02T08:50:34;2.00;;;0.90;;
52786;SDS011;38661;53.152;5.846;2024-03-02T08:53:00;2.72;;;1.20;;
52786;SDS011;38661;53.152;5.846;2024-03-02T08:55:27;2.10;;;1.25;;
52786;SDS011;38661;53.152;5.846;2024-03-02T08:57:53;6.43;;;1.60;;
52786;SDS011;38661;53.152;5.846;2024-03-02T09:00:19;4.47;;;1.60;;
52786;SDS011;38661;53.152;5.846;2024-03-02T09:02:45;3.97;;;2.42;;
52786;SDS011;38661;53.152;5.846;2024-03-02T09:05:11;6.93;;;2.38;;
52786;SDS011;38661;53.152;5.846;2024-03-02T09:07:37;6.63;;;4.28;;
52786;SDS011;38661;53.152;5.846;2024-03-02T09:10:04;4.40;;;2.88;;
52786;SDS011;38661;53.152;5.846;2024-03-02T09:12:31;3.42;;;1.30;;
52786;SDS011;38661;53.152;5.846;2024-03-02T09:14:57;2.40;;;1.40;;
52786;SDS011;38661;53.152;5.846;2024-03-02T09:17:23;4.57;;;1.23;;
52786;SDS011;38661;53.152;5.846;2024-03-02T09:19:49;3.13;;;1.00;;
52786;SDS011;38661;53.152;5.846;2024-03-02T09:22:18;2.83;;;1.10;;
52786;SDS011;38661;53.152;5.846;2024-03-02T09:24:44;2.25;;;2.05;;
52786;SDS011;38661;53.152;5.846;2024-03-02T09:27:09;2.72;;;1.77;;
52786;SDS011;38661;53.152;5.846;2024-03-02T09:29:35;2.15;;;1.10;;
52786;SDS011;38661;53.152;5.846;2024-03-02T09:32:01;1.65;;;0.93;;
52786;SDS011;38661;53.152;5.846;2024-03-02T09:34:27;3.38;;;1.00;;
52786;SDS011;38661;53.152;5.846;2024-03-02T09:36:53;5.95;;;1.10;;
52786;SDS011;38661;53.152;5.846;2024-03-02T09:39:18;3.78;;;1.30;;
52786;SDS011;38661;53.152;5.846;2024-03-02T09:41:44;2.92;;;1.10;;
52786;SDS011;38661;53.152;5.846;2024-03-02T09:44:10;3.10;;;1.45;;
52786;SDS011;38661;53.152;5.846;2024-03-02T09:46:36;3.85;;;1.17;;
52786;SDS011;38661;53.152;5.846;2024-03-02T09:49:02;5.65;;;1.95;;
52786;SDS011;38661;53.152;5.846;2024-03-02T09:51:28;2.53;;;0.98;;
52786;SDS011;38661;53.152;5.846;2024-03-02T09:53:53;5.53;;;0.98;;
52786;SDS011;38661;53.152;5.846;2024-03-02T09:56:23;3.42;;;1.15;;
52786;SDS011;38661;53.152;5.846;2024-03-02T09:58:49;4.68;;;1.38;;
52786;SDS011;38661;53.152;5.846;2024-03-02T10:01:15;6.72;;;1.15;;
52786;SDS011;38661;53.152;5.846;2024-03-02T10:03:40;3.70;;;1.33;;
52786;SDS011;38661;53.152;5.846;2024-03-02T10:06:22;2.70;;;1.23;;
52786;SDS011;38661;53.152;5.846;2024-03-02T10:08:49;4.13;;;1.63;;
52786;SDS011;38661;53.152;5.846;2024-03-02T10:11:28;4.00;;;1.65;;
52786;SDS011;38661;53.152;5.846;2024-03-02T10:14:07;2.05;;;1.00;;
52786;SDS011;38661;53.152;5.846;2024-03-02T10:16:34;2.65;;;1.00;;
52786;SDS011;38661;53.152;5.846;2024-03-02T10:19:17;7.28;;;2.85;;
52786;SDS011;38661;53.152;5.846;2024-03-02T10:21:44;4.15;;;1.27;;
52786;SDS011;38661;53.152;5.846;2024-03-02T10:24:10;2.85;;;1.27;;
52786;SDS011;38661;53.152;5.846;2024-03-02T10:26:37;5.30;;;1.38;;
52786;SDS011;38661;53.152;5.846;2024-03-02T10:29:03;3.10;;;1.98;;
52786;SDS011;38661;53.152;5.846;2024-03-02T10:31:29;2.97;;;1.05;;
52786;SDS011;38661;53.152;5.846;2024-03-02T10:33:55;2.78;;;1.08;;
52786;SDS011;38661;53.152;5.846;2024-03-02T10:36:22;2.72;;;0.82;;
52786;SDS011;38661;53.152;5.846;2024-03-02T10:38:48;5.60;;;1.20;;
52786;SDS011;38661;53.152;5.846;2024-03-02T10:41:18;1.55;;;0.68;;
52786;SDS011;38661;53.152;5.846;2024-03-02T10:43:44;3.45;;;1.00;;
52786;SDS011;38661;53.152;5.846;2024-03-02T10:46:11;3.88;;;1.52;;
52786;SDS011;38661;53.152;5.846;2024-03-02T10:48:39;3.03;;;1.60;;
52786;SDS011;38661;53.152;5.846;2024-03-02T10:51:06;2.08;;;1.08;;
52786;SDS011;38661;53.152;5.846;2024-03-02T10:53:32;3.33;;;1.05;;
52786;SDS011;38661;53.152;5.846;2024-03-02T10:55:58;3.40;;;0.98;;
52786;SDS011;38661;53.152;5.846;2024-03-02T10:58:31;3.13;;;1.20;;
52786;SDS011;38661;53.152;5.846;2024-03-02T11:01:02;4.38;;;1.85;;
52786;SDS011;38661;53.152;5.846;2024-03-02T11:03:33;4.32;;;1.80;;
52786;SDS011;38661;53.152;5.846;2024-03-02T11:06:03;5.47;;;1.63;;
52786;SDS011;38661;53.152;5.846;2024-03-02T11:08:33;4.25;;;1.98;;
52786;SDS011;38661;53.152;5.846;2024-03-02T11:11:07;4.03;;;2.13;;
52786;SDS011;38661;53.152;5.846;2024-03-02T11:13:37;6.47;;;2.10;;
52786;SDS011;38661;53.152;5.846;2024-03-02T11:16:06;2.63;;;1.58;;
52786;SDS011;38661;53.152;5.846;2024-03-02T11:18:41;4.68;;;1.50;;
52786;SDS011;38661;53.152;5.846;2024-03-02T11:21:07;4.65;;;1.08;;
52786;SDS011;38661;53.152;5.846;2024-03-02T11:23:33;4.75;;;2.30;;
52786;SDS011;38661;53.152;5.846;2024-03-02T11:28:49;2.85;;;1.17;;
52786;SDS011;38661;53.152;5.846;2024-03-02T11:31:15;5.05;;;1.55;;
52786;SDS011;38661;53.152;5.846;2024-03-02T11:33:40;3.72;;;1.58;;
52786;SDS011;38661;53.152;5.846;2024-03-02T11:36:06;6.43;;;2.47;;
52786;SDS011;38661;53.152;5.846;2024-03-02T11:38:33;3.90;;;1.52;;
52786;SDS011;38661;53.152;5.846;2024-03-02T11:41:05;3.67;;;0.90;;
52786;SDS011;38661;53.152;5.846;2024-03-02T11:43:39;2.35;;;1.40;;
52786;SDS011;38661;53.152;5.846;2024-03-02T11:46:05;2.67;;;1.00;;
52786;SDS011;38661;53.152;5.846;2024-03-02T11:48:35;3.22;;;1.27;;
52786;SDS011;38661;53.152;5.846;2024-03-02T11:51:04;3.08;;;1.38;;
52786;SDS011;38661;53.152;5.846;2024-03-02T11:53:31;5.13;;;1.83;;
52786;SDS011;38661;53.152;5.846;2024-03-02T11:55:58;3.78;;;1.85;;
52786;SDS011;38661;53.152;5.846;2024-03-02T11:58:24;3.50;;;1.75;;
52786;SDS011;38661;53.152;5.846;2024-03-02T12:00:52;6.07;;;1.85;;
52786;SDS011;38661;53.152;5.846;2024-03-02T12:03:18;4.30;;;1.83;;
52786;SDS011;38661;53.152;5.846;2024-03-02T12:05:51;8.45;;;2.65;;
52786;SDS011;38661;53.152;5.846;2024-03-02T12:08:18;4.55;;;2.13;;
52786;SDS011;38661;53.152;5.846;2024-03-02T12:10:55;4.68;;;1.80;;
52786;SDS011;38661;53.152;5.846;2024-03-02T12:13:25;5.22;;;1.90;;
52786;SDS011;38661;53.152;5.846;2024-03-02T12:15:52;3.58;;;1.70;;
52786;SDS011;38661;53.152;5.846;2024-03-02T12:18:22;3.50;;;1.33;;
52786;SDS011;38661;53.152;5.846;2024-03-02T12:20:48;2.70;;;1.50;;
52786;SDS011;38661;53.152;5.846;2024-03-02T12:23:17;5.30;;;1.33;;
52786;SDS011;38661;53.152;5.846;2024-03-02T12:25:43;4.05;;;1.30;;
52786;SDS011;38661;53.152;5.846;2024-03-02T12:28:10;3.95;;;1.70;;
52786;SDS011;38661;53.152;5.846;2024-03-02T12:30:36;4.85;;;1.80;;
52786;SDS011;38661;53.152;5.846;2024-03-02T12:33:02;2.60;;;1.33;;
52786;SDS011;38661;53.152;5.846;2024-03-02T12:35:28;2.88;;;1.75;;
52786;SDS011;38661;53.152;5.846;2024-03-02T12:37:54;4.03;;;2.00;;
52786;SDS011;38661;53.152;5.846;2024-03-02T12:40:20;2.83;;;1.80;;
52786;SDS011;38661;53.152;5.846;2024-03-02T12:42:48;2.75;;;1.73;;
52786;SDS011;38661;53.152;5.846;2024-03-02T12:45:14;3.17;;;1.83;;
52786;SDS011;38661;53.152;5.846;2024-03-02T12:47:41;5.35;;;1.60;;
52786;SDS011;38661;53.152;5.846;2024-03-02T12:50:08;3.95;;;1.73;;
52786;SDS011;38661;53.152;5.846;2024-03-02T12:52:35;4.63;;;1.50;;
52786;SDS011;38661;53.152;5.846;2024-03-02T12:55:01;6.70;;;1.92;;
52786;SDS011;38661;53.152;5.846;2024-03-02T12:57:30;4.03;;;1.48;;
52786;SDS011;38661;53.152;5.846;2024-03-02T13:00:04;2.70;;;1.27;;
52786;SDS011;38661;53.152;5.846;2024-03-02T13:02:34;3.58;;;1.67;;
52786;SDS011;38661;53.152;5.846;2024-03-02T13:05:05;2.97;;;1.15;;
52786;SDS011;38661;53.152;5.846;2024-03-02T13:07:36;3.42;;;1.10;;
52786;SDS011;38661;53.152;5.846;2024-03-02T13:10:02;3.28;;;1.10;;
52786;SDS011;38661;53.152;5.846;2024-03-02T13:12:28;7.05;;;1.35;;
52786;SDS011;38661;53.152;5.846;2024-03-02T13:14:57;4.25;;;1.48;;
52786;SDS011;38661;53.152;5.846;2024-03-02T13:17:24;3.83;;;0.80;;
52786;SDS011;38661;53.152;5.846;2024-03-02T13:19:53;2.83;;;0.90;;
52786;SDS011;38661;53.152;5.846;2024-03-02T13:22:20;3.92;;;0.98;;
52786;SDS011;38661;53.152;5.846;2024-03-02T13:24:47;2.28;;;0.75;;
52786;SDS011;38661;53.152;5.846;2024-03-02T13:27:13;3.38;;;0.85;;
52786;SDS011;38661;53.152;5.846;2024-03-02T13:29:39;2.97;;;0.93;;
52786;SDS011;38661;53.152;5.846;2024-03-02T13:32:05;2.75;;;0.75;;
52786;SDS011;38661;53.152;5.846;2024-03-02T13:34:30;5.43;;;1.50;;
52786;SDS011;38661;53.152;5.846;2024-03-02T13:36:56;8.82;;;1.23;;
52786;SDS011;38661;53.152;5.846;2024-03-02T13:39:22;2.33;;;0.90;;
52786;SDS011;38661;53.152;5.846;2024-03-02T13:41:48;2.58;;;0.80;;
52786;SDS011;38661;53.152;5.846;2024-03-02T13:44:20;3.47;;;0.70;;
52786;SDS011;38661;53.152;5.846;2024-03-02T13:46:46;2.97;;;0.88;;
52786;SDS011;38661;53.152;5.846;2024-03-02T13:49:13;2.80;;;1.10;;
52786;SDS011;38661;53.152;5.846;2024-03-02T13:51:39;4.13;;;1.10;;
52786;SDS011;38661;53.152;5.846;2024-03-02T13:54:05;3.88;;;1.75;;
52786;SDS011;38661;53.152;5.846;2024-03-02T13:56:31;4.75;;;1.25;;
52786;SDS011;38661;53.152;5.846;2024-03-02T13:58:57;4.18;;;1.50;;
52786;SDS011;38661;53.152;5.846;2024-03-02T14:01:24;5.57;;;2.70;;
52786;SDS011;38661;53.152;5.846;2024-03-02T14:03:50;3.20;;;1.20;;
52786;SDS011;38661;53.152;5.846;2024-03-02T14:06:16;4.03;;;1.45;;
52786;SDS011;38661;53.152;5.846;2024-03-02T14:08:42;3.03;;;1.23;;
52786;SDS011;38661;53.152;5.846;2024-03-02T14:11:09;3.22;;;0.88;;
52786;SDS011;38661;53.152;5.846;2024-03-02T14:13:40;3.55;;;1.17;;
52786;SDS011;38661;53.152;5.846;2024-03-02T14:16:06;3.45;;;0.80;;
52786;SDS011;38661;53.152;5.846;2024-03-02T14:18:32;2.03;;;1.10;;
52786;SDS011;38661;53.152;5.846;2024-03-02T14:20:58;3.85;;;1.00;;
52786;SDS011;38661;53.152;5.846;2024-03-02T14:23:23;2.22;;;0.75;;
52786;SDS011;38661;53.152;5.846;2024-03-02T14:25:50;1.60;;;0.82;;
52786;SDS011;38661;53.152;5.846;2024-03-02T14:28:16;2.05;;;0.88;;
52786;SDS011;38661;53.152;5.846;2024-03-02T14:30:43;1.80;;;1.15;;
52786;SDS011;38661;53.152;5.846;2024-03-02T14:33:08;3.13;;;0.90;;
52786;SDS011;38661;53.152;5.846;2024-03-02T14:35:36;3.85;;;2.40;;
52786;SDS011;38661;53.152;5.846;2024-03-02T14:38:01;3.10;;;1.25;;
52786;SDS011;38661;53.152;5.846;2024-03-02T14:40:27;2.55;;;1.15;;
52786;SDS011;38661;53.152;5.846;2024-03-02T14:42:54;1.95;;;1.23;;
52786;SDS011;38661;53.152;5.846;2024-03-02T14:45:20;1.45;;;1.00;;
52786;SDS011;38661;53.152;5.846;2024-03-02T14:47:45;2.40;;;1.05;;
52786;SDS011;38661;53.152;5.846;2024-03-02T14:50:11;2.92;;;1.15;;
52786;SDS011;38661;53.152;5.846;2024-03-02T14:52:37;2.72;;;1.20;;